Time;durP1;ratioP1;P1;durP2;ratioP2;P2;SDS_P1;SDS_P2;PMS_P1;PMS_P2;Temp;Humidity;BMP_temperature;BMP_pressure;BME280_temperature;BME280_humidity;BME280_pressure;Samples;Min_cycle;Max_cycle;Signal;HPM_P1;HPM_P2
2023/10/13 00:01:04;;;;;;;9.70;4.10;;;20.20;99.90;;;;;;5006825;28;20449;-71
2023/10/13 00:03:31;;;;;;;9.83;4.67;;;20.20;99.90;;;;;;5007061;28;20418;-70
2023/10/13 00:06:02;;;;;;;6.50;4.30;;;20.20;99.90;;;;;;5006755;28;20422;-71
2023/10/13 00:08:29;;;;;;;6.80;4.40;;;20.10;99.90;;;;;;5005881;28;20458;-71
2023/10/13 00:10:59;;;;;;;6.50;4.80;;;20.00;99.90;;;;;;5006663;28;20829;-69
2023/10/13 00:13:26;;;;;;;7.17;4.10;;;20.00;99.90;;;;;;5006535;28;20423;-70
2023/10/13 00:15:57;;;;;;;7.60;4.53;;;19.90;99.60;;;;;;5006871;28;20458;-70
2023/10/13 00:18:26;;;;;;;5.90;4.10;;;19.90;99.90;;;;;;5006436;28;20411;-73
2023/10/13 00:20:52;;;;;;;5.50;3.67;;;19.90;99.90;;;;;;5006567;28;20894;-72
2023/10/13 00:23:21;;;;;;;5.80;4.50;;;19.80;99.90;;;;;;5005908;28;20441;-69
2023/10/13 00:25:50;;;;;;;9.67;4.80;;;19.80;99.90;;;;;;5006311;28;20263;-68
2023/10/13 00:28:26;;;;;;;5.20;4.13;;;19.70;99.90;;;;;;5006197;28;20933;-69
2023/10/13 00:30:59;;;;;;;5.10;3.80;;;19.50;99.90;;;;;;5006250;28;20441;-70
2023/10/13 00:33:25;;;;;;;5.57;4.63;;;19.40;99.90;;;;;;5006136;28;20502;-69
2023/10/13 00:35:52;;;;;;;4.53;3.67;;;19.30;99.90;;;;;;5006296;28;20537;-70
2023/10/13 00:38:19;;;;;;;6.27;4.20;;;19.20;99.90;;;;;;5006329;28;20659;-70
2023/10/13 00:40:52;;;;;;;6.00;4.23;;;19.20;99.90;;;;;;5006349;28;20430;-71
2023/10/13 00:46:05;;;;;;;6.27;3.50;;;19.30;99.90;;;;;;5006220;28;20542;-72
2023/10/13 00:48:43;;;;;;;6.40;4.33;;;19.30;99.90;;;;;;5006370;28;20413;-69
2023/10/13 00:51:32;;;;;;;5.40;3.83;;;19.30;99.90;;;;;;5005985;28;21028;-70
2023/10/13 00:54:02;;;;;;;7.20;4.10;;;19.30;99.90;;;;;;5005767;28;20914;-71
2023/10/13 00:56:29;;;;;;;7.13;4.37;;;19.30;99.90;;;;;;5006164;28;20446;-70
2023/10/13 00:58:57;;;;;;;5.60;4.40;;;19.20;99.90;;;;;;5005835;28;20415;-70
2023/10/13 01:01:29;;;;;;;5.67;4.80;;;19.20;99.90;;;;;;5005328;28;20777;-68
2023/10/13 01:03:59;;;;;;;7.67;4.37;;;19.00;99.90;;;;;;5005752;28;20407;-70
2023/10/13 01:06:25;;;;;;;4.90;4.40;;;19.00;99.90;;;;;;5005592;28;20426;-71
2023/10/13 01:09:32;;;;;;;6.03;4.10;;;19.00;99.90;;;;;;5004701;28;20980;-68
2023/10/13 01:11:54;;;;;;;5.00;3.73;;;19.00;99.90;;;;;;5003501;28;20450;-68
2023/10/13 01:14:21;;;;;;;7.03;5.00;;;18.80;99.90;;;;;;5005017;28;20493;-69
2023/10/13 01:16:47;;;;;;;5.50;4.20;;;18.60;99.90;;;;;;5003957;28;20534;-70
2023/10/13 01:19:17;;;;;;;7.17;4.13;;;18.70;99.90;;;;;;5005495;28;20407;-70
2023/10/13 01:21:44;;;;;;;9.00;5.30;;;18.70;99.90;;;;;;5005225;28;20415;-70
2023/10/13 01:24:13;;;;;;;7.53;4.30;;;18.70;99.90;;;;;;5005411;28;20980;-69
2023/10/13 01:26:39;;;;;;;6.20;4.20;;;18.50;99.90;;;;;;5004016;28;20423;-69
2023/10/13 01:29:12;;;;;;;7.63;3.80;;;18.50;99.90;;;;;;5005185;28;20431;-71
2023/10/13 01:31:45;;;;;;;4.90;3.93;;;18.60;99.90;;;;;;5005336;28;20407;-70
2023/10/13 01:34:22;;;;;;;7.43;4.27;;;18.70;99.90;;;;;;5003506;28;20415;-68
2023/10/13 01:36:56;;;;;;;6.30;4.03;;;18.70;99.90;;;;;;5005220;28;20442;-71
2023/10/13 01:39:28;;;;;;;5.47;4.60;;;18.70;99.90;;;;;;5003982;28;21252;-71
2023/10/13 01:41:55;;;;;;;7.43;3.90;;;18.70;99.90;;;;;;5005124;28;20403;-71
2023/10/13 01:44:21;;;;;;;7.20;4.50;;;18.70;99.90;;;;;;5004711;28;20440;-68
2023/10/13 01:46:47;;;;;;;4.40;4.00;;;18.80;99.90;;;;;;5003922;28;20796;-70
2023/10/13 01:49:17;;;;;;;8.60;5.10;;;18.80;99.90;;;;;;5004904;28;20425;-70
2023/10/13 01:51:43;;;;;;;6.07;4.33;;;18.80;99.90;;;;;;5005054;28;20480;-71
2023/10/13 01:54:13;;;;;;;5.10;3.70;;;18.80;99.90;;;;;;5005334;28;20407;-69
2023/10/13 01:56:43;;;;;;;7.67;4.20;;;18.80;99.90;;;;;;5004985;28;20689;-70
2023/10/13 01:59:10;;;;;;;5.03;4.20;;;18.70;99.90;;;;;;5004562;28;20498;-71
2023/10/13 02:01:36;;;;;;;8.57;4.67;;;18.70;99.90;;;;;;5004854;28;20469;-70
2023/10/13 02:04:06;;;;;;;5.97;3.80;;;18.70;99.90;;;;;;5004298;28;20698;-69
2023/10/13 02:06:38;;;;;;;8.00;4.90;;;18.60;99.90;;;;;;5004629;28;20673;-70
2023/10/13 02:11:54;;;;;;;5.37;4.30;;;18.60;99.90;;;;;;5004554;28;20405;-69
2023/10/13 02:14:22;;;;;;;5.60;4.17;;;18.60;99.90;;;;;;5003030;28;20473;-69
2023/10/13 02:16:50;;;;;;;5.23;4.00;;;18.50;99.90;;;;;;5004352;28;20454;-71
2023/10/13 02:19:19;;;;;;;7.33;4.30;;;18.40;99.90;;;;;;5004400;28;20422;-71
2023/10/13 02:21:45;;;;;;;5.10;4.13;;;18.40;99.90;;;;;;5004153;28;20419;-70
2023/10/13 02:24:17;;;;;;;5.33;4.83;;;18.40;99.90;;;;;;5004274;28;20418;-69
2023/10/13 02:26:47;;;;;;;5.00;4.20;;;18.40;99.90;;;;;;5004179;28;20176;-69
2023/10/13 02:29:13;;;;;;;6.30;4.67;;;18.40;99.90;;;;;;5004016;28;20473;-69
2023/10/13 02:31:42;;;;;;;6.83;5.13;;;18.40;99.90;;;;;;5004350;28;20421;-69
2023/10/13 02:34:08;;;;;;;6.70;4.23;;;18.30;99.90;;;;;;5004404;28;20407;-70
2023/10/13 02:36:48;;;;;;;7.90;4.27;;;18.30;99.90;;;;;;5004054;28;20455;-69
2023/10/13 02:39:17;;;;;;;5.53;4.40;;;18.30;99.90;;;;;;5004449;28;20413;-72
2023/10/13 02:41:47;;;;;;;6.93;4.77;;;18.30;99.90;;;;;;5003801;28;20417;-69
2023/10/13 02:44:26;;;;;;;7.53;4.17;;;18.10;99.90;;;;;;5003942;28;20890;-70
2023/10/13 02:46:55;;;;;;;5.10;4.53;;;17.90;99.90;;;;;;5004094;28;20770;-70
2023/10/13 02:49:26;;;;;;;6.53;4.47;;;18.00;99.90;;;;;;5003413;28;20910;-68
2023/10/13 02:51:52;;;;;;;7.00;4.57;;;18.00;99.90;;;;;;5003639;28;20981;-69
2023/10/13 02:54:18;;;;;;;6.10;4.50;;;18.10;99.90;;;;;;5002465;28;20411;-70
2023/10/13 02:57:27;;;;;;;8.83;4.67;;;18.10;99.90;;;;;;5003927;28;20832;-70
2023/10/13 02:59:58;;;;;;;9.80;5.00;;;18.10;99.90;;;;;;4998215;28;20458;-70
2023/10/13 03:02:25;;;;;;;5.87;4.00;;;18.10;99.90;;;;;;5003855;28;20399;-70
2023/10/13 03:04:52;;;;;;;6.53;5.00;;;18.10;99.90;;;;;;5002189;28;20419;-70
2023/10/13 03:07:23;;;;;;;8.90;5.10;;;18.00;99.90;;;;;;5003846;28;20414;-68
2023/10/13 03:09:52;;;;;;;6.07;4.13;;;18.00;99.90;;;;;;5003053;28;20442;-68
2023/10/13 03:12:21;;;;;;;6.27;4.80;;;18.00;99.90;;;;;;5003743;28;20514;-69
2023/10/13 03:14:55;;;;;;;6.73;4.07;;;18.00;99.90;;;;;;5003511;28;20419;-71
2023/10/13 03:17:32;;;;;;;7.47;4.23;;;17.90;99.90;;;;;;5003793;28;20442;-70
2023/10/13 03:19:58;;;;;;;8.40;4.90;;;17.90;99.90;;;;;;5003540;28;20441;-68
2023/10/13 03:22:31;;;;;;;9.57;4.70;;;18.00;99.90;;;;;;5003980;28;20412;-69
2023/10/13 03:24:59;;;;;;;7.50;4.63;;;18.10;99.90;;;;;;5003686;28;20200;-68
2023/10/13 03:27:39;;;;;;;6.30;4.67;;;18.10;99.90;;;;;;5004055;28;20419;-72
2023/10/13 03:30:13;;;;;;;6.27;4.70;;;18.10;99.90;;;;;;5003630;28;20848;-70
2023/10/13 03:32:43;;;;;;;9.07;4.97;;;18.10;99.90;;;;;;5005500;28;20402;-70
2023/10/13 03:35:24;;;;;;;7.53;4.77;;;18.10;99.90;;;;;;5005854;28;20414;-71
2023/10/13 03:37:51;;;;;;;7.30;4.70;;;18.20;99.90;;;;;;5007470;28;20449;-70
2023/10/13 03:40:38;;;;;;;6.23;4.63;;;18.10;99.90;;;;;;5005725;28;20473;-70
2023/10/13 03:43:06;;;;;;;5.30;4.80;;;18.10;99.90;;;;;;5006956;28;20403;-69
2023/10/13 03:45:39;;;;;;;5.30;4.70;;;18.00;99.90;;;;;;5007302;28;20422;-70
2023/10/13 03:48:31;;;;;;;7.03;4.73;;;17.90;99.90;;;;;;5006997;28;20411;-69
2023/10/13 03:51:14;;;;;;;5.90;4.33;;;17.90;99.90;;;;;;5006840;28;20454;-70
2023/10/13 03:53:53;;;;;;;7.83;4.57;;;18.00;99.90;;;;;;5007095;28;20488;-71
2023/10/13 03:56:26;;;;;;;7.90;5.07;;;17.90;99.90;;;;;;5007217;28;20450;-70
2023/10/13 03:58:54;;;;;;;7.07;4.57;;;17.80;99.90;;;;;;5007238;28;20431;-69
2023/10/13 04:01:31;;;;;;;7.23;5.23;;;17.70;99.90;;;;;;5007066;28;20431;-68
2023/10/13 04:04:03;;;;;;;5.80;3.97;;;17.70;99.90;;;;;;5007029;28;20445;-69
2023/10/13 04:17:15;;;;;;;10.00;5.40;;;17.50;99.90;;;;;;5006668;28;20479;-71
2023/10/13 04:25:35;;;;;;;6.17;4.83;;;17.50;99.90;;;;;;4985828;28;20503;-71
2023/10/13 04:30:52;;;;;;;8.93;5.30;;;17.50;99.90;;;;;;5006667;28;20446;-70
2023/10/13 04:38:56;;;;;;;9.40;5.53;;;17.40;99.90;;;;;;5006382;28;20430;-69
2023/10/13 04:54:49;;;;;;;14.43;5.73;;;17.30;99.90;;;;;;5006076;28;20418;-70
2023/10/13 04:57:46;;;;;;;6.73;4.27;;;17.30;99.90;;;;;;5005920;28;20453;-71
2023/10/13 05:51:46;;;;;;;8.83;5.03;;;17.70;99.90;;;;;;5004686;28;20219;-71
2023/10/13 06:29:57;;;;;;;6.10;5.50;;;18.60;99.90;;;;;;5004138;28;20476;-70
2023/10/13 06:32:26;;;;;;;9.13;5.40;;;18.80;99.90;;;;;;5004439;28;20509;-70
2023/10/13 06:34:58;;;;;;;6.87;5.33;;;18.90;99.90;;;;;;5003864;28;20203;-71
2023/10/13 06:37:30;;;;;;;7.93;4.87;;;19.00;99.90;;;;;;5004368;28;20561;-71
2023/10/13 06:40:07;;;;;;;6.83;5.50;;;19.00;99.90;;;;;;5003937;28;20803;-71
2023/10/13 06:42:42;;;;;;;7.47;5.03;;;19.10;99.90;;;;;;5004156;28;20429;-71
2023/10/13 06:45:08;;;;;;;8.37;5.50;;;19.10;99.90;;;;;;5003996;28;20414;-69
2023/10/13 06:47:42;;;;;;;6.93;4.67;;;19.30;99.90;;;;;;5004497;28;20804;-69
2023/10/13 06:50:15;;;;;;;10.90;6.10;;;19.30;99.90;;;;;;5003437;28;20893;-70
2023/10/13 06:52:44;;;;;;;8.30;4.90;;;19.20;99.90;;;;;;5003702;28;21230;-70
2023/10/13 06:58:06;;;;;;;7.90;5.43;;;19.30;99.90;;;;;;4994759;28;20569;-70
2023/10/13 07:00:37;;;;;;;7.03;4.47;;;19.30;99.90;;;;;;5003897;28;20489;-71
2023/10/13 07:03:08;;;;;;;6.67;5.40;;;19.40;99.90;;;;;;5003924;28;20429;-71
2023/10/13 07:05:43;;;;;;;8.37;4.40;;;19.40;99.90;;;;;;5003861;28;20415;-70
2023/10/13 07:08:09;;;;;;;7.73;4.43;;;19.30;99.90;;;;;;5006783;28;20473;-71
2023/10/13 07:10:48;;;;;;;7.63;5.10;;;19.30;99.90;;;;;;5007087;28;20729;-69
2023/10/13 07:13:14;;;;;;;6.40;4.40;;;19.30;99.80;;;;;;5007684;28;20473;-69
2023/10/13 07:15:49;;;;;;;7.23;4.50;;;19.40;99.50;;;;;;5007771;28;20455;-71
2023/10/13 07:18:22;;;;;;;8.13;5.33;;;19.60;99.90;;;;;;5007312;28;20178;-69
2023/10/13 07:20:48;;;;;;;7.13;5.33;;;19.60;99.90;;;;;;5007118;28;20435;-70
2023/10/13 07:23:17;;;;;;;6.13;4.80;;;19.60;99.90;;;;;;5007564;28;20635;-70
2023/10/13 07:25:55;;;;;;;5.63;4.47;;;19.70;99.90;;;;;;5007374;28;20810;-69
2023/10/13 07:28:21;;;;;;;7.57;4.37;;;19.70;99.90;;;;;;5006431;28;20949;-69
2023/10/13 07:31:11;;;;;;;5.70;4.63;;;19.60;99.70;;;;;;5007057;28;21024;-70
2023/10/13 07:33:35;;;;;;;8.73;5.73;;;19.60;99.70;;;;;;5007340;28;20792;-71
2023/10/13 07:36:45;;;;;;;7.60;4.40;;;19.60;99.20;;;;;;5007692;28;20458;-71
2023/10/13 07:39:10;;;;;;;7.23;4.13;;;19.70;99.60;;;;;;5004818;28;20676;-71
2023/10/13 07:41:36;;;;;;;5.30;3.87;;;19.80;99.60;;;;;;5007430;28;20433;-71
2023/10/13 07:44:04;;;;;;;7.10;4.43;;;19.90;98.40;;;;;;5007170;28;20415;-70
2023/10/13 07:46:32;;;;;;;7.40;4.40;;;20.00;98.10;;;;;;5007359;28;20249;-69
2023/10/13 07:49:08;;;;;;;6.50;4.07;;;20.20;97.80;;;;;;5007237;28;20451;-71
2023/10/13 07:51:44;;;;;;;11.37;4.50;;;20.30;98.00;;;;;;5007242;28;21244;-71
2023/10/13 07:54:21;;;;;;;9.00;4.10;;;20.30;97.50;;;;;;5030442;22;21133;-74
2023/10/13 07:56:48;;;;;;;6.13;4.10;;;20.40;97.40;;;;;;5006246;28;20889;-74
2023/10/13 07:59:16;;;;;;;7.37;4.10;;;20.40;97.10;;;;;;5005467;28;20402;-73
2023/10/13 08:01:45;;;;;;;6.97;3.83;;;20.50;96.70;;;;;;5003923;28;20904;-72
2023/10/13 08:04:11;;;;;;;9.17;4.93;;;20.60;96.60;;;;;;5004644;28;20467;-71
2023/10/13 08:06:45;;;;;;;10.80;4.53;;;20.60;96.40;;;;;;5005366;28;20520;-73
2023/10/13 08:11:56;;;;;;;9.77;4.83;;;20.60;96.60;;;;;;5006288;28;20397;-74
2023/10/13 08:14:29;;;;;;;8.80;5.17;;;20.70;96.60;;;;;;5006128;28;20577;-72
2023/10/13 08:19:26;;;;;;;8.30;4.80;;;21.00;96.70;;;;;;5005713;28;20451;-73
2023/10/13 08:22:39;;;;;;;7.50;4.80;;;21.00;96.50;;;;;;5005555;28;20171;-74
2023/10/13 08:48:12;;;;;;;7.20;4.77;;;21.80;95.30;;;;;;5004707;28;20414;-75
2023/10/13 08:50:52;;;;;;;7.37;3.83;;;21.90;95.20;;;;;;5004522;28;20434;-74
2023/10/13 08:53:32;;;;;;;6.53;4.10;;;21.90;94.50;;;;;;5004554;28;20454;-72
2023/10/13 08:56:17;;;;;;;11.47;4.13;;;22.10;94.40;;;;;;5005072;28;20454;-73
2023/10/13 09:04:22;;;;;;;12.50;4.50;;;22.50;92.60;;;;;;5004245;28;20469;-72
2023/10/13 09:09:34;;;;;;;6.80;3.80;;;22.70;92.00;;;;;;5004961;28;20417;-73
2023/10/13 09:12:10;;;;;;;5.87;3.90;;;22.80;91.40;;;;;;5004469;28;20506;-72
2023/10/13 09:14:48;;;;;;;9.43;3.30;;;23.00;90.40;;;;;;5003887;28;20497;-74
2023/10/13 09:25:37;;;;;;;9.50;4.77;;;23.40;89.00;;;;;;5004332;28;20410;-72
2023/10/13 09:28:17;;;;;;;7.70;4.20;;;23.50;89.00;;;;;;5004609;28;20464;-73
2023/10/13 09:30:47;;;;;;;9.77;4.20;;;23.60;88.00;;;;;;5003817;28;20407;-73
2023/10/13 09:33:19;;;;;;;6.37;3.57;;;23.70;85.80;;;;;;5003595;28;20454;-73
2023/10/13 09:35:51;;;;;;;7.43;4.90;;;23.70;84.10;;;;;;5003951;28;20953;-72
2023/10/13 09:38:17;;;;;;;7.33;3.70;;;23.90;84.30;;;;;;5003854;28;20400;-73
2023/10/13 09:40:50;;;;;;;5.37;3.10;;;24.00;82.70;;;;;;5004088;28;20749;-74
2023/10/13 09:43:19;;;;;;;6.43;3.57;;;24.10;82.30;;;;;;5003482;28;20447;-72
2023/10/13 09:46:02;;;;;;;8.57;3.63;;;24.20;82.00;;;;;;5003466;28;20459;-75
2023/10/13 09:48:33;;;;;;;9.87;4.03;;;24.40;82.60;;;;;;5003270;28;20505;-73
2023/10/13 09:51:08;;;;;;;7.13;3.70;;;24.60;80.50;;;;;;5002711;28;20422;-73
2023/10/13 09:53:38;;;;;;;8.10;3.73;;;24.60;81.30;;;;;;5003448;28;20488;-72
2023/10/13 09:56:28;;;;;;;6.90;3.70;;;24.60;79.90;;;;;;5003886;28;20486;-71
2023/10/13 09:59:08;;;;;;;7.90;3.47;;;24.70;79.10;;;;;;5003770;28;20465;-72
2023/10/13 10:01:57;;;;;;;7.37;3.93;;;24.70;78.00;;;;;;5003423;28;20402;-76
2023/10/13 10:04:23;;;;;;;5.10;3.60;;;24.90;78.40;;;;;;5003464;28;20971;-73
2023/10/13 10:07:02;;;;;;;7.70;3.70;;;24.90;77.50;;;;;;5003803;28;20983;-74
2023/10/13 10:09:34;;;;;;;11.47;3.53;;;25.10;78.10;;;;;;5003438;28;20801;-73
2023/10/13 10:12:21;;;;;;;10.70;3.90;;;25.30;78.70;;;;;;5001934;28;20701;-75
2023/10/13 10:15:28;;;;;;;8.57;4.03;;;25.40;77.10;;;;;;5002703;28;20505;-76
2023/10/13 10:17:54;;;;;;;6.27;3.37;;;25.40;76.80;;;;;;5004474;28;20426;-74
2023/10/13 10:20:45;;;;;;;11.03;3.97;;;25.50;75.20;;;;;;5004224;28;21007;-72
2023/10/13 10:23:24;;;;;;;4.90;3.03;;;25.70;75.00;;;;;;5003593;28;20488;-73
2023/10/13 10:25:51;;;;;;;4.57;3.30;;;25.80;72.20;;;;;;5003530;28;20430;-73
2023/10/13 10:28:19;;;;;;;6.23;3.60;;;26.00;71.80;;;;;;5003060;28;20950;-73
2023/10/13 10:30:45;;;;;;;10.87;4.07;;;26.10;71.70;;;;;;5003526;28;20947;-75
2023/10/13 10:36:01;;;;;;;6.13;3.50;;;26.30;70.90;;;;;;5003047;28;20466;-73
2023/10/13 10:40:59;;;;;;;7.33;3.77;;;27.10;70.50;;;;;;5003196;28;20423;-74
2023/10/13 10:43:41;;;;;;;6.03;3.30;;;27.20;67.70;;;;;;5002973;28;20869;-73
2023/10/13 10:46:27;;;;;;;4.30;3.60;;;27.10;66.60;;;;;;5003220;28;20402;-73
2023/10/13 10:49:02;;;;;;;6.10;3.70;;;26.90;68.60;;;;;;5002831;28;20455;-73
2023/10/13 10:51:31;;;;;;;4.70;3.50;;;26.90;67.70;;;;;;5003187;28;20414;-72
2023/10/13 10:54:11;;;;;;;7.87;3.47;;;26.90;67.70;;;;;;5002452;28;20473;-73
2023/10/13 10:56:36;;;;;;;6.40;3.10;;;27.30;67.50;;;;;;5002973;28;20489;-73
2023/10/13 10:59:04;;;;;;;6.57;3.40;;;28.40;64.20;;;;;;5002448;28;20843;-74
2023/10/13 11:01:38;;;;;;;6.33;3.20;;;29.90;59.60;;;;;;5003234;28;20658;-73
2023/10/13 11:04:18;;;;;;;6.97;3.40;;;30.60;57.00;;;;;;5002767;28;20937;-74
2023/10/13 11:06:57;;;;;;;7.20;3.30;;;30.90;56.10;;;;;;5003576;28;20417;-75
2023/10/13 11:09:31;;;;;;;8.67;3.47;;;31.00;55.60;;;;;;5002906;28;21594;-74
2023/10/13 11:12:23;;;;;;;7.33;4.07;;;31.40;56.80;;;;;;5003121;28;20407;-74
2023/10/13 11:15:06;;;;;;;6.77;3.63;;;32.80;53.10;;;;;;5002751;28;20418;-74
2023/10/13 11:17:50;;;;;;;4.90;3.07;;;34.20;49.60;;;;;;5002934;28;20569;-74
2023/10/13 11:20:25;;;;;;;6.70;3.50;;;33.60;48.70;;;;;;5002358;28;20709;-75
2023/10/13 11:22:52;;;;;;;5.73;3.50;;;34.10;47.00;;;;;;5003064;28;20430;-74
2023/10/13 11:25:34;;;;;;;6.37;3.40;;;34.30;45.20;;;;;;5002882;28;20422;-74
2023/10/13 11:28:20;;;;;;;6.27;3.90;;;34.50;44.80;;;;;;5003431;28;20451;-74
2023/10/13 11:30:49;;;;;;;3.73;3.20;;;34.40;44.50;;;;;;5003271;28;20414;-73
2023/10/13 11:33:35;;;;;;;5.73;3.47;;;34.40;44.20;;;;;;5002669;28;20439;-72
2023/10/13 11:36:02;;;;;;;4.33;3.13;;;34.10;44.70;;;;;;5003189;28;20454;-75
2023/10/13 11:41:22;;;;;;;6.30;4.07;;;35.10;43.20;;;;;;5002889;28;20465;-73
2023/10/13 11:51:48;;;;;;;8.40;3.50;;;35.70;42.20;;;;;;5002828;28;20410;-74
2023/10/13 11:54:23;;;;;;;6.53;4.03;;;34.80;40.90;;;;;;5005225;28;20458;-73
2023/10/13 11:56:49;;;;;;;8.87;4.00;;;35.70;40.60;;;;;;5006402;28;20977;-75
2023/10/13 11:59:18;;;;;;;5.50;3.30;;;35.50;40.90;;;;;;5006053;28;20825;-75
2023/10/13 12:07:19;;;;;;;4.87;3.13;;;37.50;37.80;;;;;;5006395;28;20499;-75
2023/10/13 12:12:22;;;;;;;11.50;4.27;;;37.90;37.50;;;;;;5006057;28;20422;-74
2023/10/13 12:14:55;;;;;;;4.23;3.03;;;36.40;37.70;;;;;;5005841;28;20557;-73
2023/10/13 12:17:39;;;;;;;4.87;3.20;;;36.50;38.00;;;;;;5005792;28;20462;-74
2023/10/13 12:20:10;;;;;;;7.63;4.90;;;37.20;37.30;;;;;;5005356;28;20729;-73
2023/10/13 12:22:39;;;;;;;8.80;3.40;;;36.60;36.80;;;;;;5002691;28;20465;-75
2023/10/13 12:28:18;;;;;;;6.93;4.17;;;36.10;38.10;;;;;;4993180;28;20422;-75
2023/10/13 12:30:52;;;;;;;5.60;3.17;;;36.40;37.10;;;;;;5005679;28;20411;-75
2023/10/13 12:33:24;;;;;;;4.77;3.77;;;36.00;37.30;;;;;;5005364;28;20925;-75
2023/10/13 12:36:06;;;;;;;9.23;5.00;;;37.00;37.20;;;;;;4988077;28;20984;-72
2023/10/13 12:38:37;;;;;;;4.20;3.30;;;38.50;36.70;;;;;;5004073;28;20504;-75
2023/10/13 12:49:38;;;;;;;7.27;3.87;;;39.00;34.30;;;;;;4990787;28;20410;-75
2023/10/13 12:52:03;;;;;;;6.50;3.43;;;38.30;34.60;;;;;;4990235;28;20973;-75
2023/10/13 12:54:35;;;;;;;8.13;3.40;;;39.10;34.60;;;;;;4987242;28;20506;-75
2023/10/13 12:57:02;;;;;;;5.80;3.33;;;39.10;33.90;;;;;;5004997;28;20199;-74
2023/10/13 12:59:28;;;;;;;4.27;2.90;;;38.90;33.50;;;;;;5005282;28;20505;-75
2023/10/13 13:01:54;;;;;;;8.60;3.17;;;39.20;33.30;;;;;;5004597;28;20493;-75
2023/10/13 13:04:31;;;;;;;6.23;3.43;;;38.10;34.10;;;;;;5001952;28;20658;-74
2023/10/13 13:06:57;;;;;;;5.10;3.63;;;38.90;33.60;;;;;;4989090;28;20241;-75
2023/10/13 13:09:25;;;;;;;7.07;3.23;;;39.00;32.70;;;;;;4986732;28;20757;-73
2023/10/13 13:11:57;;;;;;;3.93;3.20;;;39.40;33.60;;;;;;5004516;28;20183;-75
2023/10/13 13:14:29;;;;;;;5.83;3.13;;;40.00;32.60;;;;;;5004584;28;20488;-74
2023/10/13 13:17:04;;;;;;;9.60;3.77;;;39.90;31.80;;;;;;5004856;28;20482;-75
2023/10/13 13:19:40;;;;;;;4.90;2.80;;;39.00;32.70;;;;;;4988090;28;20410;-73
2023/10/13 13:22:13;;;;;;;7.80;3.60;;;39.60;32.60;;;;;;5004994;28;20425;-75
2023/10/13 13:24:43;;;;;;;6.23;3.47;;;39.30;32.10;;;;;;4987943;28;20779;-74
2023/10/13 13:27:17;;;;;;;7.40;3.67;;;39.20;33.00;;;;;;5003365;28;20421;-72
2023/10/13 13:29:45;;;;;;;6.87;3.07;;;40.00;31.40;;;;;;5003524;28;21522;-76
2023/10/13 13:32:45;;;;;;;3.93;3.40;;;40.00;31.30;;;;;;5002893;28;20418;-75
2023/10/13 13:35:04;;;;;;;7.43;3.07;;;38.80;31.60;;;;;;4999575;28;20411;-74
2023/10/13 13:37:34;;;;;;;9.70;3.60;;;40.40;30.30;;;;;;5003014;28;20564;-75
2023/10/13 13:40:15;;;;;;;5.70;2.83;;;40.10;31.30;;;;;;5002771;28;20929;-73
2023/10/13 13:42:45;;;;;;;5.33;2.77;;;39.20;30.10;;;;;;5002952;28;20434;-75
2023/10/13 13:45:22;;;;;;;4.73;3.10;;;39.00;30.90;;;;;;4986306;28;20958;-75
2023/10/13 13:47:53;;;;;;;6.40;3.10;;;38.20;30.60;;;;;;5003811;28;21156;-73
2023/10/13 13:50:29;;;;;;;3.60;2.70;;;37.80;31.60;;;;;;5002397;28;20929;-73
2023/10/13 13:52:56;;;;;;;5.40;3.20;;;39.60;31.30;;;;;;5026648;23;20539;-76
2023/10/13 13:55:23;;;;;;;5.77;3.60;;;39.60;30.10;;;;;;4994994;28;20434;-75
2023/10/13 13:57:50;;;;;;;6.23;3.17;;;39.70;30.00;;;;;;4990208;28;20426;-76
2023/10/13 14:00:20;;;;;;;10.03;3.80;;;39.30;30.90;;;;;;4966819;28;20814;-74
2023/10/13 14:02:47;;;;;;;9.37;3.70;;;38.30;31.10;;;;;;4994284;28;20403;-75
2023/10/13 14:05:15;;;;;;;4.40;3.00;;;37.40;31.70;;;;;;5010138;28;20415;-75
2023/10/13 14:07:50;;;;;;;5.50;3.30;;;35.80;33.50;;;;;;5002400;28;20411;-73
2023/10/13 14:11:12;;;;;;;6.70;3.03;;;34.90;34.40;;;;;;5013665;28;20423;-76
2023/10/13 14:13:22;;;;;;;5.50;3.10;;;33.60;35.40;;;;;;4989428;28;21103;-75
2023/10/13 14:15:48;;;;;;;6.70;3.90;;;32.60;37.30;;;;;;5002388;28;20458;-73
2023/10/13 14:18:16;;;;;;;4.40;3.30;;;31.80;37.40;;;;;;4993617;28;20601;-74
2023/10/13 14:20:42;;;;;;;4.20;3.07;;;31.30;39.40;;;;;;5008950;28;20206;-76
2023/10/13 14:23:11;;;;;;;5.13;3.20;;;30.70;38.90;;;;;;5003557;28;20447;-75
2023/10/13 14:25:38;;;;;;;7.10;3.50;;;30.50;39.80;;;;;;5000702;28;20511;-73
2023/10/13 14:28:05;;;;;;;8.90;3.80;;;30.30;40.00;;;;;;4997567;28;20415;-75
2023/10/13 14:30:31;;;;;;;8.07;3.50;;;30.00;40.70;;;;;;4974346;28;20411;-73
2023/10/13 14:33:00;;;;;;;4.87;2.87;;;29.80;40.20;;;;;;4984790;28;20726;-74
2023/10/13 14:35:26;;;;;;;3.47;3.17;;;29.90;41.00;;;;;;4992217;28;20421;-74
2023/10/13 14:37:52;;;;;;;6.00;2.80;;;29.60;40.70;;;;;;5008826;28;20423;-74
2023/10/13 14:40:21;;;;;;;3.40;2.70;;;29.70;40.80;;;;;;4984786;28;20670;-72
2023/10/13 14:42:47;;;;;;;5.10;3.33;;;29.70;40.50;;;;;;4987115;28;20422;-75
2023/10/13 14:45:16;;;;;;;9.17;3.07;;;29.40;40.00;;;;;;4989143;28;20853;-72
2023/10/13 14:47:42;;;;;;;4.60;3.37;;;29.50;40.40;;;;;;4978443;28;20451;-71
2023/10/13 14:50:17;;;;;;;4.30;2.90;;;29.40;40.20;;;;;;4980528;28;20426;-73
2023/10/13 14:52:43;;;;;;;5.93;3.27;;;29.60;40.30;;;;;;5000473;28;20491;-73
2023/10/13 14:55:18;;;;;;;6.90;3.30;;;29.60;41.40;;;;;;4994964;28;20454;-76
2023/10/13 14:57:46;;;;;;;4.53;2.80;;;29.20;41.30;;;;;;4986805;28;20529;-75
2023/10/13 15:00:14;;;;;;;7.03;3.10;;;29.20;41.30;;;;;;4970678;28;20421;-74
2023/10/13 15:02:43;;;;;;;4.43;2.80;;;29.20;39.90;;;;;;4982951;28;20511;-75
2023/10/13 15:05:16;;;;;;;9.20;3.20;;;29.10;40.00;;;;;;4994874;28;20746;-74
2023/10/13 15:07:44;;;;;;;5.13;3.00;;;29.10;39.90;;;;;;4988100;28;20565;-72
2023/10/13 15:10:14;;;;;;;8.03;2.83;;;29.00;40.00;;;;;;4982554;28;20532;-73
2023/10/13 15:12:40;;;;;;;6.67;3.07;;;29.20;40.50;;;;;;5011164;28;20411;-75
2023/10/13 15:15:13;;;;;;;4.10;3.00;;;29.00;39.10;;;;;;4988119;28;20427;-75
2023/10/13 15:17:44;;;;;;;4.30;3.10;;;29.00;41.00;;;;;;5008947;28;21246;-73
2023/10/13 15:20:15;;;;;;;7.20;3.20;;;28.90;41.30;;;;;;4966729;28;20404;-74
2023/10/13 15:22:44;;;;;;;5.13;3.33;;;29.00;42.10;;;;;;5009027;28;20426;-72
2023/10/13 15:25:28;;;;;;;5.40;2.93;;;28.80;42.80;;;;;;4994368;28;20413;-74
2023/10/13 15:28:02;;;;;;;4.07;3.43;;;28.60;43.00;;;;;;4987424;28;20468;-73
2023/10/13 15:30:42;;;;;;;5.03;2.70;;;28.60;41.30;;;;;;4992976;28;20402;-74
2023/10/13 15:33:08;;;;;;;7.53;2.97;;;28.30;41.10;;;;;;4989512;28;20969;-73
2023/10/13 15:35:33;;;;;;;3.50;2.60;;;28.20;42.10;;;;;;5019668;28;20426;-74
2023/10/13 15:38:00;;;;;;;6.80;3.03;;;28.20;41.20;;;;;;5000941;28;20476;-75
2023/10/13 15:40:27;;;;;;;4.63;2.40;;;28.10;42.50;;;;;;4996303;28;20295;-75
2023/10/13 15:42:59;;;;;;;4.00;2.93;;;28.00;43.10;;;;;;4994079;28;20411;-75
2023/10/13 15:45:32;;;;;;;9.20;2.90;;;28.00;42.90;;;;;;5016366;28;20422;-74
2023/10/13 15:47:58;;;;;;;5.23;3.00;;;27.80;44.60;;;;;;5009765;28;20484;-73
2023/10/13 15:50:23;;;;;;;3.60;2.70;;;27.50;45.90;;;;;;4988798;28;20809;-71
2023/10/13 15:52:50;;;;;;;4.70;2.40;;;27.40;44.60;;;;;;4996308;28;20209;-72
2023/10/13 15:55:19;;;;;;;3.30;2.50;;;27.30;45.20;;;;;;4973969;28;20269;-73
2023/10/13 15:57:45;;;;;;;8.23;3.10;;;27.30;45.60;;;;;;4999800;28;20459;-72
2023/10/13 16:00:23;;;;;;;5.50;2.83;;;27.10;46.50;;;;;;5012491;28;20425;-72
2023/10/13 16:02:54;;;;;;;3.67;2.57;;;27.00;46.00;;;;;;5019948;28;20179;-72
2023/10/13 16:05:22;;;;;;;5.30;2.80;;;26.80;45.60;;;;;;5005267;28;20430;-71
2023/10/13 16:07:52;;;;;;;4.00;2.50;;;26.80;46.60;;;;;;5010463;28;20919;-72
2023/10/13 16:10:21;;;;;;;5.50;2.53;;;26.60;44.20;;;;;;5011754;28;20426;-72
2023/10/13 16:12:47;;;;;;;3.90;2.87;;;26.50;44.30;;;;;;5012913;28;20415;-72
2023/10/13 16:15:15;;;;;;;5.53;2.57;;;26.50;46.30;;;;;;4986531;28;20477;-71
2023/10/13 16:17:41;;;;;;;4.50;2.93;;;26.40;43.50;;;;;;4991563;28;20677;-72
2023/10/13 16:20:17;;;;;;;3.23;2.70;;;26.20;48.20;;;;;;5006362;28;20442;-73
2023/10/13 16:22:44;;;;;;;4.70;2.80;;;26.10;47.30;;;;;;4999282;28;20180;-72
2023/10/13 16:25:11;;;;;;;3.70;2.60;;;26.10;47.20;;;;;;4973938;28;20432;-74
2023/10/13 16:27:39;;;;;;;3.80;2.60;;;26.20;45.60;;;;;;5015922;28;20423;-73
2023/10/13 16:30:09;;;;;;;7.43;3.17;;;26.10;47.30;;;;;;5000489;28;20562;-75
2023/10/13 16:32:35;;;;;;;5.67;2.80;;;25.80;46.90;;;;;;4988721;28;20443;-72
2023/10/13 16:35:05;;;;;;;4.27;3.07;;;25.70;46.80;;;;;;5003687;28;20477;-73
2023/10/13 16:37:31;;;;;;;6.67;3.37;;;25.60;47.50;;;;;;5010280;28;20451;-75
2023/10/13 16:40:04;;;;;;;6.63;3.47;;;25.60;47.40;;;;;;5015218;28;20800;-72
2023/10/13 16:42:33;;;;;;;5.03;2.80;;;25.60;48.00;;;;;;5009624;28;20176;-74
2023/10/13 16:45:14;;;;;;;7.10;3.70;;;25.40;48.40;;;;;;5006477;28;20430;-73